sensor_id;sensor_type;location;lat;lon;timestamp;temperature;humidity
20698;DHT22;10508;50.956;4.640;2023-07-13T01:23:10;16.70;99.90
20698;DHT22;10508;50.956;4.640;2023-07-13T01:25:37;16.80;99.90
20698;DHT22;10508;50.956;4.640;2023-07-13T01:28:04;16.70;99.90
20698;DHT22;10508;50.956;4.640;2023-07-13T01:30:30;16.70;99.90
20698;DHT22;10508;50.956;4.640;2023-07-13T01:32:57;16.60;99.90
20698;DHT22;10508;50.956;4.640;2023-07-13T02:53:55;17.00;99.90
20698;DHT22;10508;50.956;4.640;2023-07-13T02:56:25;16.90;99.90
20698;DHT22;10508;50.956;4.640;2023-07-13T03:03:50;16.60;99.90
20698;DHT22;10508;50.956;4.640;2023-07-13T03:08:44;16.60;99.90
20698;DHT22;10508;50.956;4.640;2023-07-13T03:11:13;16.80;99.90
20698;DHT22;10508;50.956;4.640;2023-07-13T03:13:40;16.90;99.90
20698;DHT22;10508;50.956;4.640;2023-07-13T04:08:40;17.00;99.90
20698;DHT22;10508;50.956;4.640;2023-07-13T04:11:07;17.00;99.90
20698;DHT22;10508;50.956;4.640;2023-07-13T04:13:32;16.90;99.90
20698;DHT22;10508;50.956;4.640;2023-07-13T04:48:10;16.80;99.90
20698;DHT22;10508;50.956;4.640;2023-07-13T04:58:02;17.10;99.90
20698;DHT22;10508;50.956;4.640;2023-07-13T05:39:41;17.90;99.90
20698;DHT22;10508;50.956;4.640;2023-07-13T06:18:52;18.20;99.90
20698;DHT22;10508;50.956;4.640;2023-07-13T06:21:19;18.30;99.90
20698;DHT22;10508;50.956;4.640;2023-07-13T06:23:46;18.10;99.90
20698;DHT22;10508;50.956;4.640;2023-07-13T06:26:15;18.20;99.90
20698;DHT22;10508;50.956;4.640;2023-07-13T06:28:41;17.80;99.90
20698;DHT22;10508;50.956;4.640;2023-07-13T06:31:08;18.20;99.90
20698;DHT22;10508;50.956;4.640;2023-07-13T06:33:34;18.20;99.90
20698;DHT22;10508;50.956;4.640;2023-07-13T06:36:01;18.10;99.90
20698;DHT22;10508;50.956;4.640;2023-07-13T06:43:19;18.40;99.90
20698;DHT22;10508;50.956;4.640;2023-07-13T06:45:46;18.60;99.90
20698;DHT22;10508;50.956;4.640;2023-07-13T06:48:15;18.40;99.90
20698;DHT22;10508;50.956;4.640;2023-07-13T06:50:42;18.40;99.90
20698;DHT22;10508;50.956;4.640;2023-07-13T06:53:08;18.50;99.90
20698;DHT22;10508;50.956;4.640;2023-07-13T06:55:34;18.40;99.90
20698;DHT22;10508;50.956;4.640;2023-07-13T07:00:26;18.60;99.90
20698;DHT22;10508;50.956;4.640;2023-07-13T07:02:51;18.60;99.90
20698;DHT22;10508;50.956;4.640;2023-07-13T07:37:15;19.70;99.90
20698;DHT22;10508;50.956;4.640;2023-07-13T07:39:43;19.80;99.90
20698;DHT22;10508;50.956;4.640;2023-07-13T07:42:11;19.70;99.90
20698;DHT22;10508;50.956;4.640;2023-07-13T07:44:39;19.80;99.90
20698;DHT22;10508;50.956;4.640;2023-07-13T07:47:06;19.90;99.90
20698;DHT22;10508;50.956;4.640;2023-07-13T07:49:31;19.90;99.90
20698;DHT22;10508;50.956;4.640;2023-07-13T07:51:57;20.00;99.90
20698;DHT22;10508;50.956;4.640;2023-07-13T07:54:25;20.10;99.90
20698;DHT22;10508;50.956;4.640;2023-07-13T07:56:52;20.20;99.90
20698;DHT22;10508;50.956;4.640;2023-07-13T07:59:21;20.30;99.90
20698;DHT22;10508;50.956;4.640;2023-07-13T08:01:48;20.40;99.90
20698;DHT22;10508;50.956;4.640;2023-07-13T08:04:18;20.40;99.90
20698;DHT22;10508;50.956;4.640;2023-07-13T08:06:45;20.40;99.90
20698;DHT22;10508;50.956;4.640;2023-07-13T08:09:13;20.60;99.90
20698;DHT22;10508;50.956;4.640;2023-07-13T08:11:40;20.70;99.90
20698;DHT22;10508;50.956;4.640;2023-07-13T08:14:08;20.80;99.90
20698;DHT22;10508;50.956;4.640;2023-07-13T08:16:36;20.90;99.90
20698;DHT22;10508;50.956;4.640;2023-07-13T08:19:04;21.00;99.90
20698;DHT22;10508;50.956;4.640;2023-07-13T08:21:33;21.10;99.90
20698;DHT22;10508;50.956;4.640;2023-07-13T08:24:01;21.10;99.90
20698;DHT22;10508;50.956;4.640;2023-07-13T08:26:28;21.30;99.90
20698;DHT22;10508;50.956;4.640;2023-07-13T08:28:56;21.30;99.90
20698;DHT22;10508;50.956;4.640;2023-07-13T08:31:24;21.50;99.90
20698;DHT22;10508;50.956;4.640;2023-07-13T08:33:51;21.40;99.90
20698;DHT22;10508;50.956;4.640;2023-07-13T08:36:19;21.20;99.90
20698;DHT22;10508;50.956;4.640;2023-07-13T08:38:47;21.20;99.90
20698;DHT22;10508;50.956;4.640;2023-07-13T08:41:19;21.30;99.90
20698;DHT22;10508;50.956;4.640;2023-07-13T08:43:55;21.40;99.90
20698;DHT22;10508;50.956;4.640;2023-07-13T08:46:36;21.50;99.90
20698;DHT22;10508;50.956;4.640;2023-07-13T08:49:15;21.30;99.90
20698;DHT22;10508;50.956;4.640;2023-07-13T08:54:32;21.10;99.90
20698;DHT22;10508;50.956;4.640;2023-07-13T08:57:05;21.00;99.90
20698;DHT22;10508;50.956;4.640;2023-07-13T10:59:46;23.70;99.90
20698;DHT22;10508;50.956;4.640;2023-07-13T11:02:28;23.50;99.90
20698;DHT22;10508;50.956;4.640;2023-07-13T11:04:57;23.40;99.90
20698;DHT22;10508;50.956;4.640;2023-07-13T11:07:30;23.10;99.90
20698;DHT22;10508;50.956;4.640;2023-07-13T13:23:39;20.50;99.90
20698;DHT22;10508;50.956;4.640;2023-07-13T13:28:37;20.00;99.90
20698;DHT22;10508;50.956;4.640;2023-07-13T13:43:24;20.80;99.90
20698;DHT22;10508;50.956;4.640;2023-07-13T13:45:56;21.20;99.90
20698;DHT22;10508;50.956;4.640;2023-07-13T13:48:34;21.00;99.90
20698;DHT22;10508;50.956;4.640;2023-07-13T13:51:10;21.20;99.90
20698;DHT22;10508;50.956;4.640;2023-07-13T13:53:36;21.00;99.90
20698;DHT22;10508;50.956;4.640;2023-07-13T13:56:04;21.00;99.90
20698;DHT22;10508;50.956;4.640;2023-07-13T13:58:30;20.80;99.90
20698;DHT22;10508;50.956;4.640;2023-07-13T14:00:56;20.80;99.90
20698;DHT22;10508;50.956;4.640;2023-07-13T14:03:22;20.70;99.90
20698;DHT22;10508;50.956;4.640;2023-07-13T14:05:48;20.90;99.90
20698;DHT22;10508;50.956;4.640;2023-07-13T14:20:44;22.60;99.90
20698;DHT22;10508;50.956;4.640;2023-07-13T14:23:13;23.00;99.90
20698;DHT22;10508;50.956;4.640;2023-07-13T14:25:39;23.40;99.90
20698;DHT22;10508;50.956;4.640;2023-07-13T14:28:25;23.70;99.90
20698;DHT22;10508;50.956;4.640;2023-07-13T14:30:52;24.10;99.90
20698;DHT22;10508;50.956;4.640;2023-07-13T14:33:18;24.40;99.90
20698;DHT22;10508;50.956;4.640;2023-07-13T14:35:43;24.60;99.90
20698;DHT22;10508;50.956;4.640;2023-07-13T14:38:17;24.60;99.90
20698;DHT22;10508;50.956;4.640;2023-07-13T14:40:43;24.50;99.90
20698;DHT22;10508;50.956;4.640;2023-07-13T14:43:14;24.20;99.90
20698;DHT22;10508;50.956;4.640;2023-07-13T14:45:41;24.00;99.90
20698;DHT22;10508;50.956;4.640;2023-07-13T14:48:23;23.90;99.90
20698;DHT22;10508;50.956;4.640;2023-07-13T14:50:54;23.80;99.90
20698;DHT22;10508;50.956;4.640;2023-07-13T14:53:22;23.80;99.90
20698;DHT22;10508;50.956;4.640;2023-07-13T14:55:48;23.90;99.90
20698;DHT22;10508;50.956;4.640;2023-07-13T14:58:13;24.00;99.90
20698;DHT22;10508;50.956;4.640;2023-07-13T15:00:40;24.20;99.90
20698;DHT22;10508;50.956;4.640;2023-07-13T15:03:16;24.20;99.90
20698;DHT22;10508;50.956;4.640;2023-07-13T15:05:44;24.10;99.90
20698;DHT22;10508;50.956;4.640;2023-07-13T15:08:15;24.00;99.90
20698;DHT22;10508;50.956;4.640;2023-07-13T15:10:41;24.20;99.90
20698;DHT22;10508;50.956;4.640;2023-07-13T15:13:20;24.20;99.90
20698;DHT22;10508;50.956;4.640;2023-07-13T15:15:50;24.00;99.90
20698;DHT22;10508;50.956;4.640;2023-07-13T15:18:19;23.80;99.90
20698;DHT22;10508;50.956;4.640;2023-07-13T15:20:46;24.10;99.90
20698;DHT22;10508;50.956;4.640;2023-07-13T15:23:14;24.30;99.90
20698;DHT22;10508;50.956;4.640;2023-07-13T15:25:41;24.50;99.90
20698;DHT22;10508;50.956;4.640;2023-07-13T15:28:07;24.80;99.90
20698;DHT22;10508;50.956;4.640;2023-07-13T15:30:40;24.90;99.90
20698;DHT22;10508;50.956;4.640;2023-07-13T15:40:52;25.10;99.90
20698;DHT22;10508;50.956;4.640;2023-07-13T16:00:39;24.50;99.90
20698;DHT22;10508;50.956;4.640;2023-07-13T16:03:05;24.50;99.90
20698;DHT22;10508;50.956;4.640;2023-07-13T16:05:31;24.00;99.90
20698;DHT22;10508;50.956;4.640;2023-07-13T16:07:57;24.00;99.90
20698;DHT22;10508;50.956;4.640;2023-07-13T16:10:35;23.80;99.90
20698;DHT22;10508;50.956;4.640;2023-07-13T16:13:04;23.70;99.90
20698;DHT22;10508;50.956;4.640;2023-07-13T16:15:31;23.80;99.90
20698;DHT22;10508;50.956;4.640;2023-07-13T16:18:08;24.00;99.90
20698;DHT22;10508;50.956;4.640;2023-07-13T16:20:34;24.40;99.90
20698;DHT22;10508;50.956;4.640;2023-07-13T16:22:59;24.40;99.90
20698;DHT22;10508;50.956;4.640;2023-07-13T16:25:28;24.50;99.90
20698;DHT22;10508;50.956;4.640;2023-07-13T16:27:56;24.50;99.90
20698;DHT22;10508;50.956;4.640;2023-07-13T16:30:31;24.60;99.90
20698;DHT22;10508;50.956;4.640;2023-07-13T16:33:03;24.70;99.90
20698;DHT22;10508;50.956;4.640;2023-07-13T16:35:37;24.60;99.90
20698;DHT22;10508;50.956;4.640;2023-07-13T16:38:14;24.60;99.90
20698;DHT22;10508;50.956;4.640;2023-07-13T16:40:40;24.20;99.90
20698;DHT22;10508;50.956;4.640;2023-07-13T16:43:11;24.00;99.90
20698;DHT22;10508;50.956;4.640;2023-07-13T16:45:38;23.90;99.90
20698;DHT22;10508;50.956;4.640;2023-07-13T16:48:16;24.00;99.90
20698;DHT22;10508;50.956;4.640;2023-07-13T16:50:43;23.90;99.90
20698;DHT22;10508;50.956;4.640;2023-07-13T16:53:19;24.00;99.90
20698;DHT22;10508;50.956;4.640;2023-07-13T16:55:47;23.90;99.90
20698;DHT22;10508;50.956;4.640;2023-07-13T16:58:12;23.90;99.90
20698;DHT22;10508;50.956;4.640;2023-07-13T17:00:38;23.90;99.90
20698;DHT22;10508;50.956;4.640;2023-07-13T17:03:05;24.00;99.90
20698;DHT22;10508;50.956;4.640;2023-07-13T17:05:42;23.80;99.90
20698;DHT22;10508;50.956;4.640;2023-07-13T17:08:16;23.80;99.90
20698;DHT22;10508;50.956;4.640;2023-07-13T17:10:45;23.90;99.90
20698;DHT22;10508;50.956;4.640;2023-07-13T17:13:12;24.10;99.90
20698;DHT22;10508;50.956;4.640;2023-07-13T17:25:41;24.30;99.90
20698;DHT22;10508;50.956;4.640;2023-07-13T17:28:06;24.30;99.90
20698;DHT22;10508;50.956;4.640;2023-07-13T17:30:35;24.20;99.90
20698;DHT22;10508;50.956;4.640;2023-07-13T17:33:01;24.00;99.90
20698;DHT22;10508;50.956;4.640;2023-07-13T17:35:30;23.80;99.90
20698;DHT22;10508;50.956;4.640;2023-07-13T17:38:00;23.70;99.90
20698;DHT22;10508;50.956;4.640;2023-07-13T19:38:27;21.20;99.90
20698;DHT22;10508;50.956;4.640;2023-07-13T19:45:48;21.40;99.90
20698;DHT22;10508;50.956;4.640;2023-07-13T19:50:41;21.40;99.90
20698;DHT22;10508;50.956;4.640;2023-07-13T19:53:15;21.60;99.90
20698;DHT22;10508;50.956;4.640;2023-07-13T20:00:37;21.40;99.90
20698;DHT22;10508;50.956;4.640;2023-07-13T20:47:53;21.30;99.90
20698;DHT22;10508;50.956;4.640;2023-07-13T20:50:24;21.30;99.90
20698;DHT22;10508;50.956;4.640;2023-07-13T20:52:54;21.20;99.90
20698;DHT22;10508;50.956;4.640;2023-07-13T21:50:56;19.60;99.90
20698;DHT22;10508;50.956;4.640;2023-07-13T22:20:43;19.10;99.90
20698;DHT22;10508;50.956;4.640;2023-07-13T22:23:21;19.20;99.90
20698;DHT22;10508;50.956;4.640;2023-07-13T22:25:49;19.10;99.90
20698;DHT22;10508;50.956;4.640;2023-07-13T22:28:18;19.00;99.90
20698;DHT22;10508;50.956;4.640;2023-07-13T22:30:46;19.00;99.90
20698;DHT22;10508;50.956;4.640;2023-07-13T22:33:18;19.00;99.90
20698;DHT22;10508;50.956;4.640;2023-07-13T22:35:44;19.00;99.90
20698;DHT22;10508;50.956;4.640;2023-07-13T22:38:21;18.90;99.90
20698;DHT22;10508;50.956;4.640;2023-07-13T22:40:47;19.00;99.90
20698;DHT22;10508;50.956;4.640;2023-07-13T22:45:43;18.90;99.90
20698;DHT22;10508;50.956;4.640;2023-07-13T22:48:21;18.80;99.90
20698;DHT22;10508;50.956;4.640;2023-07-13T23:42:30;17.90;99.90
20698;DHT22;10508;50.956;4.640;2023-07-13T23:44:55;17.80;99.90
20698;DHT22;10508;50.956;4.640;2023-07-13T23:49:47;17.60;99.90
20698;DHT22;10508;50.956;4.640;2023-07-13T23:52:14;17.60;99.90
20698;DHT22;10508;50.956;4.640;2023-07-13T23:54:39;17.60;99.90
20698;DHT22;10508;50.956;4.640;2023-07-13T23:57:05;17.50;99.90
20698;DHT22;10508;50.956;4.640;2023-07-13T23:59:39;17.60;99.90
